New Century 1 — H9LA — position and weather

sailwx.info

Track history (hours):
 
Tides and Currents Weather Stations Pressure Air Temp Water Temp Dewpoint Dewpoint Depression Visibility Wind Speed Wind Dir Waves Ship Positions

New Century 1

Last reported at 2015-Jul-02 14:25 UTC. Time now 2015-Jul-05 17:28 UTC.
Position N 18°50' W 105°12'.

Length 200 m; beam 32.3 m.

Type: Cargo ship. MMSI: 355234000.

Date/timePositionNaut miles runAvg speedWind from/ knotsBaromVisibWave heightAir tempDewpointWater temp
2015-Jul-02 14:25N 18°50' W 105°12'1416.5
2015-Jul-02 13:33N 18°58' W 105°24'2516.5
2015-Jul-02 12:04N 19°13' W 105°45'77116.9
2015-Jun-30 14:32N 26°48' W 117°02'5416.8
2015-Jun-30 11:21N 27°20' W 117°51'1417.0
2015-Jun-30 10:31N 27°28' W 118°03'5516.9
2015-Jun-30 07:16N 28°01' W 118°54'1317.0
2015-Jun-30 06:32N 28°08' W 119°05'1616.8
2015-Jun-30 05:33N 28°18' W 119°20'1716.6
2015-Jun-30 04:33N 28°28' W 119°36'1616.6
2015-Jun-30 03:33N 28°37' W 119°51'1716.6
2015-Jun-30 02:33N 28°47' W 120°06'1616.4
2015-Jun-30 01:33N 28°57' W 120°21'1716.7
2015-Jun-30 00:33N 29°07' W 120°36'3316.7
2015-Jun-29 22:33N 29°26' W 121°07'1816.5
2015-Jun-29 21:30N 29°37' W 121°24'1516.4
2015-Jun-29 20:33N 29°46' W 121°38'1716.6
2015-Jun-29 19:33N 29°56' W 121°53'1716.6
2015-Jun-29 18:33N 30°05' W 122°09'1816.6
2015-Jun-29 17:29N 30°14' W 122°27'1516.5
2015-Jun-29 16:33N 30°23' W 122°42'1716.6
2015-Jun-29 15:33N 30°32' W 122°58'1716.7
2015-Jun-29 14:33N 30°41' W 123°14'1716.7
2015-Jun-29 13:33N 30°49' W 123°31'1716.8
2015-Jun-29 12:33N 30°58' W 123°47'1717.0
2015-Jun-29 11:33N 31°07' W 124°04'1716.8
2015-Jun-29 10:33N 31°16' W 124°21'1716.7
2015-Jun-29 09:33N 31°25' W 124°37'7016.6
2015-Jun-29 05:21N 32°02' W 125°47'8216.3
2015-Jun-29 00:20N 32°45' W 127°09'  
Track history (hours):
 
Tides and Currents Weather Stations Pressure Air Temp Water Temp Dewpoint Dewpoint Depression Visibility Wind Speed Wind Dir Waves Ship Positions

New Century 1

Last reported at 2015-Jul-02 14:25 UTC. Time now 2015-Jul-05 17:28 UTC.
Position N 18°50' W 105°12'.

Length 200 m; beam 32.3 m.

Type: Cargo ship. MMSI: 355234000.

Date/timePositionNaut miles runAvg speedWind from/ knotsBaromVisibWave heightAir tempDewpointWater temp
2015-Jul-02 14:25N 18°50' W 105°12'1416.5
2015-Jul-02 13:33N 18°58' W 105°24'2516.5
2015-Jul-02 12:04N 19°13' W 105°45'77116.9
2015-Jun-30 14:32N 26°48' W 117°02'5416.8
2015-Jun-30 11:21N 27°20' W 117°51'1417.0
2015-Jun-30 10:31N 27°28' W 118°03'5516.9
2015-Jun-30 07:16N 28°01' W 118°54'1317.0
2015-Jun-30 06:32N 28°08' W 119°05'1616.8
2015-Jun-30 05:33N 28°18' W 119°20'1716.6
2015-Jun-30 04:33N 28°28' W 119°36'1616.6
2015-Jun-30 03:33N 28°37' W 119°51'1716.6
2015-Jun-30 02:33N 28°47' W 120°06'1616.4
2015-Jun-30 01:33N 28°57' W 120°21'1716.7
2015-Jun-30 00:33N 29°07' W 120°36'3316.7
2015-Jun-29 22:33N 29°26' W 121°07'1816.5
2015-Jun-29 21:30N 29°37' W 121°24'1516.4
2015-Jun-29 20:33N 29°46' W 121°38'1716.6
2015-Jun-29 19:33N 29°56' W 121°53'1716.6
2015-Jun-29 18:33N 30°05' W 122°09'1816.6
2015-Jun-29 17:29N 30°14' W 122°27'1516.5
2015-Jun-29 16:33N 30°23' W 122°42'1716.6
2015-Jun-29 15:33N 30°32' W 122°58'1716.7
2015-Jun-29 14:33N 30°41' W 123°14'1716.7
2015-Jun-29 13:33N 30°49' W 123°31'1716.8
2015-Jun-29 12:33N 30°58' W 123°47'1717.0
2015-Jun-29 11:33N 31°07' W 124°04'1716.8
2015-Jun-29 10:33N 31°16' W 124°21'1716.7
2015-Jun-29 09:33N 31°25' W 124°37'7016.6
2015-Jun-29 05:21N 32°02' W 125°47'8216.3
2015-Jun-29 00:20N 32°45' W 127°09'  

Dump ship's entire track history